sensor_id;sensor_type;location;lat;lon;timestamp;temperature;humidity
27647;DHT22;42229;51.230;6.240;2023-02-01T00:01:39;8.50;99.90
27647;DHT22;42229;51.230;6.240;2023-02-01T00:04:06;8.50;99.90
27647;DHT22;42229;51.230;6.240;2023-02-01T00:06:32;8.50;99.90
27647;DHT22;42229;51.230;6.240;2023-02-01T00:08:58;8.50;99.90
27647;DHT22;42229;51.230;6.240;2023-02-01T00:11:24;8.40;99.90
27647;DHT22;42229;51.230;6.240;2023-02-01T00:13:51;8.40;99.90
27647;DHT22;42229;51.230;6.240;2023-02-01T00:16:18;8.40;99.90
27647;DHT22;42229;51.230;6.240;2023-02-01T00:18:47;8.40;99.90
27647;DHT22;42229;51.230;6.240;2023-02-01T00:21:16;8.40;99.90
27647;DHT22;42229;51.230;6.240;2023-02-01T00:23:44;8.30;99.90
27647;DHT22;42229;51.230;6.240;2023-02-01T00:26:14;8.20;99.90
27647;DHT22;42229;51.230;6.240;2023-02-01T00:28:41;8.20;99.90
27647;DHT22;42229;51.230;6.240;2023-02-01T00:31:08;8.20;99.90
27647;DHT22;42229;51.230;6.240;2023-02-01T00:33:34;8.00;99.90
27647;DHT22;42229;51.230;6.240;2023-02-01T00:36:01;8.00;99.90
27647;DHT22;42229;51.230;6.240;2023-02-01T00:38:30;8.00;99.90
27647;DHT22;42229;51.230;6.240;2023-02-01T00:41:06;7.90;99.90
27647;DHT22;42229;51.230;6.240;2023-02-01T00:43:34;7.90;99.90
27647;DHT22;42229;51.230;6.240;2023-02-01T00:46:00;7.90;99.90
27647;DHT22;42229;51.230;6.240;2023-02-01T00:48:27;7.90;99.90
27647;DHT22;42229;51.230;6.240;2023-02-01T00:50:53;7.90;99.90
27647;DHT22;42229;51.230;6.240;2023-02-01T00:53:19;7.80;99.90
27647;DHT22;42229;51.230;6.240;2023-02-01T00:55:49;7.80;99.90
27647;DHT22;42229;51.230;6.240;2023-02-01T00:58:15;7.70;99.90
27647;DHT22;42229;51.230;6.240;2023-02-01T01:00:41;7.70;99.90
27647;DHT22;42229;51.230;6.240;2023-02-01T01:03:07;7.60;99.90
27647;DHT22;42229;51.230;6.240;2023-02-01T01:05:46;7.60;99.90
27647;DHT22;42229;51.230;6.240;2023-02-01T01:08:14;7.50;99.90
27647;DHT22;42229;51.230;6.240;2023-02-01T01:10:40;7.50;99.90
27647;DHT22;42229;51.230;6.240;2023-02-01T01:13:07;7.40;99.90
27647;DHT22;42229;51.230;6.240;2023-02-01T01:15:37;7.40;99.90
27647;DHT22;42229;51.230;6.240;2023-02-01T01:18:05;7.30;99.90
27647;DHT22;42229;51.230;6.240;2023-02-01T01:20:31;7.30;99.90
27647;DHT22;42229;51.230;6.240;2023-02-01T01:23:00;7.20;99.90
27647;DHT22;42229;51.230;6.240;2023-02-01T01:25:26;7.30;99.90
27647;DHT22;42229;51.230;6.240;2023-02-01T01:27:52;7.20;99.90
27647;DHT22;42229;51.230;6.240;2023-02-01T01:30:18;7.10;99.90
27647;DHT22;42229;51.230;6.240;2023-02-01T01:32:45;7.10;99.90
27647;DHT22;42229;51.230;6.240;2023-02-01T01:35:11;7.10;99.90
27647;DHT22;42229;51.230;6.240;2023-02-01T01:37:37;7.10;99.90
27647;DHT22;42229;51.230;6.240;2023-02-01T01:40:04;7.10;99.90
27647;DHT22;42229;51.230;6.240;2023-02-01T01:42:37;7.20;99.90
27647;DHT22;42229;51.230;6.240;2023-02-01T01:45:16;7.10;99.90
27647;DHT22;42229;51.230;6.240;2023-02-01T01:47:53;7.20;99.90
27647;DHT22;42229;51.230;6.240;2023-02-01T01:50:25;7.20;99.90
27647;DHT22;42229;51.230;6.240;2023-02-01T01:52:54;7.10;99.90
27647;DHT22;42229;51.230;6.240;2023-02-01T01:55:21;7.20;99.90
27647;DHT22;42229;51.230;6.240;2023-02-01T01:57:57;7.10;99.90
27647;DHT22;42229;51.230;6.240;2023-02-01T02:00:25;7.10;99.90
27647;DHT22;42229;51.230;6.240;2023-02-01T02:02:55;7.10;99.90
27647;DHT22;42229;51.230;6.240;2023-02-01T02:05:24;7.00;99.90
27647;DHT22;42229;51.230;6.240;2023-02-01T02:07:51;7.00;99.90
27647;DHT22;42229;51.230;6.240;2023-02-01T02:10:19;7.00;99.90
27647;DHT22;42229;51.230;6.240;2023-02-01T02:12:46;7.10;99.90
27647;DHT22;42229;51.230;6.240;2023-02-01T02:15:14;7.00;99.90
27647;DHT22;42229;51.230;6.240;2023-02-01T02:17:59;7.00;99.90
27647;DHT22;42229;51.230;6.240;2023-02-01T02:20:34;7.00;99.90
27647;DHT22;42229;51.230;6.240;2023-02-01T02:31:40;7.00;99.90
27647;DHT22;42229;51.230;6.240;2023-02-01T02:39:58;7.00;99.90
27647;DHT22;42229;51.230;6.240;2023-02-01T02:42:40;7.10;99.90
27647;DHT22;42229;51.230;6.240;2023-02-01T02:51:09;7.10;99.90
27647;DHT22;42229;51.230;6.240;2023-02-01T02:56:46;7.20;99.90
27647;DHT22;42229;51.230;6.240;2023-02-01T02:59:31;7.20;99.90
27647;DHT22;42229;51.230;6.240;2023-02-01T03:02:18;7.20;99.90
27647;DHT22;42229;51.230;6.240;2023-02-01T03:05:04;7.20;99.90
27647;DHT22;42229;51.230;6.240;2023-02-01T03:10:16;7.10;99.90
27647;DHT22;42229;51.230;6.240;2023-02-01T03:12:46;7.10;99.90
27647;DHT22;42229;51.230;6.240;2023-02-01T03:15:44;7.10;99.90
27647;DHT22;42229;51.230;6.240;2023-02-01T03:18:12;7.10;99.90
27647;DHT22;42229;51.230;6.240;2023-02-01T03:20:43;7.10;99.90
27647;DHT22;42229;51.230;6.240;2023-02-01T03:23:10;7.10;99.90
27647;DHT22;42229;51.230;6.240;2023-02-01T03:25:37;7.20;99.90
27647;DHT22;42229;51.230;6.240;2023-02-01T03:28:04;7.20;99.90
27647;DHT22;42229;51.230;6.240;2023-02-01T03:30:34;7.30;99.90
27647;DHT22;42229;51.230;6.240;2023-02-01T03:33:08;7.20;99.90
27647;DHT22;42229;51.230;6.240;2023-02-01T03:41:20;7.30;99.90
27647;DHT22;42229;51.230;6.240;2023-02-01T03:46:48;7.30;99.90
27647;DHT22;42229;51.230;6.240;2023-02-01T03:49:22;7.30;99.90
27647;DHT22;42229;51.230;6.240;2023-02-01T03:51:52;7.30;99.90
27647;DHT22;42229;51.230;6.240;2023-02-01T03:54:19;7.40;99.90
27647;DHT22;42229;51.230;6.240;2023-02-01T03:56:46;7.40;99.90
27647;DHT22;42229;51.230;6.240;2023-02-01T03:59:14;7.40;99.90
27647;DHT22;42229;51.230;6.240;2023-02-01T04:01:41;7.40;99.90
27647;DHT22;42229;51.230;6.240;2023-02-01T04:04:07;7.40;99.90
27647;DHT22;42229;51.230;6.240;2023-02-01T04:06:35;7.40;99.90
27647;DHT22;42229;51.230;6.240;2023-02-01T04:09:03;7.40;99.90
27647;DHT22;42229;51.230;6.240;2023-02-01T04:11:29;7.40;99.90
27647;DHT22;42229;51.230;6.240;2023-02-01T04:13:55;7.40;99.90
27647;DHT22;42229;51.230;6.240;2023-02-01T04:16:21;7.40;99.90
27647;DHT22;42229;51.230;6.240;2023-02-01T04:18:48;7.40;99.90
27647;DHT22;42229;51.230;6.240;2023-02-01T04:21:15;7.40;99.90
27647;DHT22;42229;51.230;6.240;2023-02-01T04:23:41;7.40;99.90
27647;DHT22;42229;51.230;6.240;2023-02-01T04:26:07;7.30;99.90
27647;DHT22;42229;51.230;6.240;2023-02-01T04:28:33;7.30;99.90
27647;DHT22;42229;51.230;6.240;2023-02-01T04:31:00;7.20;99.90
27647;DHT22;42229;51.230;6.240;2023-02-01T04:33:26;7.20;99.90
27647;DHT22;42229;51.230;6.240;2023-02-01T04:35:52;7.20;99.90
27647;DHT22;42229;51.230;6.240;2023-02-01T04:38:18;7.20;99.90
27647;DHT22;42229;51.230;6.240;2023-02-01T04:40:46;7.20;99.90
27647;DHT22;42229;51.230;6.240;2023-02-01T04:43:13;7.20;99.90
27647;DHT22;42229;51.230;6.240;2023-02-01T04:45:39;7.10;99.90
27647;DHT22;42229;51.230;6.240;2023-02-01T04:48:05;7.10;99.90
27647;DHT22;42229;51.230;6.240;2023-02-01T04:50:31;7.10;99.90
27647;DHT22;42229;51.230;6.240;2023-02-01T04:52:58;7.20;99.90
27647;DHT22;42229;51.230;6.240;2023-02-01T04:55:24;7.10;99.90
27647;DHT22;42229;51.230;6.240;2023-02-01T04:57:50;7.10;99.90
27647;DHT22;42229;51.230;6.240;2023-02-01T05:00:17;7.10;99.90
27647;DHT22;42229;51.230;6.240;2023-02-01T05:02:43;7.10;99.90
27647;DHT22;42229;51.230;6.240;2023-02-01T05:05:09;7.00;99.90
27647;DHT22;42229;51.230;6.240;2023-02-01T05:07:36;7.00;99.90
27647;DHT22;42229;51.230;6.240;2023-02-01T05:10:02;7.10;99.90
27647;DHT22;42229;51.230;6.240;2023-02-01T05:12:29;7.10;99.90
27647;DHT22;42229;51.230;6.240;2023-02-01T05:15:14;7.00;99.90
27647;DHT22;42229;51.230;6.240;2023-02-01T05:17:40;7.00;99.90
27647;DHT22;42229;51.230;6.240;2023-02-01T05:20:07;7.00;99.90
27647;DHT22;42229;51.230;6.240;2023-02-01T05:22:35;7.00;99.90
27647;DHT22;42229;51.230;6.240;2023-02-01T05:25:02;7.00;99.90
27647;DHT22;42229;51.230;6.240;2023-02-01T05:27:29;7.00;99.90
27647;DHT22;42229;51.230;6.240;2023-02-01T05:29:56;7.00;99.90
27647;DHT22;42229;51.230;6.240;2023-02-01T05:32:22;7.00;99.90
27647;DHT22;42229;51.230;6.240;2023-02-01T05:34:48;6.90;99.90
27647;DHT22;42229;51.230;6.240;2023-02-01T05:37:15;7.00;99.90
27647;DHT22;42229;51.230;6.240;2023-02-01T05:39:41;7.00;99.90
27647;DHT22;42229;51.230;6.240;2023-02-01T05:42:07;6.90;99.90
27647;DHT22;42229;51.230;6.240;2023-02-01T05:44:33;6.90;99.90
27647;DHT22;42229;51.230;6.240;2023-02-01T05:47:00;7.00;99.90
27647;DHT22;42229;51.230;6.240;2023-02-01T05:49:26;7.00;99.90
27647;DHT22;42229;51.230;6.240;2023-02-01T05:51:52;7.00;99.90
27647;DHT22;42229;51.230;6.240;2023-02-01T05:54:18;7.00;99.90
27647;DHT22;42229;51.230;6.240;2023-02-01T05:56:44;6.90;99.90
27647;DHT22;42229;51.230;6.240;2023-02-01T05:59:11;7.00;99.90
27647;DHT22;42229;51.230;6.240;2023-02-01T06:01:37;7.00;99.90
27647;DHT22;42229;51.230;6.240;2023-02-01T06:04:03;7.00;99.90
27647;DHT22;42229;51.230;6.240;2023-02-01T06:06:29;7.00;99.90
27647;DHT22;42229;51.230;6.240;2023-02-01T06:08:56;7.00;99.90
27647;DHT22;42229;51.230;6.240;2023-02-01T06:11:22;7.00;99.90
27647;DHT22;42229;51.230;6.240;2023-02-01T06:13:48;7.00;99.90
27647;DHT22;42229;51.230;6.240;2023-02-01T06:16:15;7.00;99.90
27647;DHT22;42229;51.230;6.240;2023-02-01T06:18:41;7.00;99.90
27647;DHT22;42229;51.230;6.240;2023-02-01T06:21:08;7.00;99.90
27647;DHT22;42229;51.230;6.240;2023-02-01T06:23:34;7.10;99.90
27647;DHT22;42229;51.230;6.240;2023-02-01T06:26:01;7.10;99.90
27647;DHT22;42229;51.230;6.240;2023-02-01T06:28:30;7.10;99.90
27647;DHT22;42229;51.230;6.240;2023-02-01T06:30:56;7.20;99.90
27647;DHT22;42229;51.230;6.240;2023-02-01T06:33:24;7.20;99.90
27647;DHT22;42229;51.230;6.240;2023-02-01T06:35:57;7.30;99.90
27647;DHT22;42229;51.230;6.240;2023-02-01T06:38:24;7.30;99.90
27647;DHT22;42229;51.230;6.240;2023-02-01T06:40:55;7.30;99.90
27647;DHT22;42229;51.230;6.240;2023-02-01T06:43:25;7.40;99.90
27647;DHT22;42229;51.230;6.240;2023-02-01T06:45:52;7.40;99.90
27647;DHT22;42229;51.230;6.240;2023-02-01T06:48:19;7.40;99.90
27647;DHT22;42229;51.230;6.240;2023-02-01T06:50:45;7.30;99.90
27647;DHT22;42229;51.230;6.240;2023-02-01T06:53:11;7.30;99.90
27647;DHT22;42229;51.230;6.240;2023-02-01T06:55:37;7.30;99.90
27647;DHT22;42229;51.230;6.240;2023-02-01T06:58:04;7.40;99.90
27647;DHT22;42229;51.230;6.240;2023-02-01T07:00:30;7.30;99.90
27647;DHT22;42229;51.230;6.240;2023-02-01T07:02:57;7.40;99.90
27647;DHT22;42229;51.230;6.240;2023-02-01T07:05:23;7.40;99.90
27647;DHT22;42229;51.230;6.240;2023-02-01T07:07:49;7.40;99.90
27647;DHT22;42229;51.230;6.240;2023-02-01T07:10:16;7.40;99.90
27647;DHT22;42229;51.230;6.240;2023-02-01T07:12:42;7.40;99.90
27647;DHT22;42229;51.230;6.240;2023-02-01T07:15:09;7.40;99.90
27647;DHT22;42229;51.230;6.240;2023-02-01T07:17:35;7.40;99.90
27647;DHT22;42229;51.230;6.240;2023-02-01T07:20:01;7.40;99.90
27647;DHT22;42229;51.230;6.240;2023-02-01T07:22:28;7.40;99.90
27647;DHT22;42229;51.230;6.240;2023-02-01T07:24:58;7.40;99.90
27647;DHT22;42229;51.230;6.240;2023-02-01T07:27:24;7.50;99.90
27647;DHT22;42229;51.230;6.240;2023-02-01T07:29:51;7.50;99.90
27647;DHT22;42229;51.230;6.240;2023-02-01T07:32:18;7.40;99.90
27647;DHT22;42229;51.230;6.240;2023-02-01T07:34:44;7.50;99.90
27647;DHT22;42229;51.230;6.240;2023-02-01T07:37:10;7.50;99.90
27647;DHT22;42229;51.230;6.240;2023-02-01T07:39:37;7.50;99.90
27647;DHT22;42229;51.230;6.240;2023-02-01T07:42:03;7.50;99.90
27647;DHT22;42229;51.230;6.240;2023-02-01T07:44:29;7.60;99.90
27647;DHT22;42229;51.230;6.240;2023-02-01T07:46:55;7.60;99.90
27647;DHT22;42229;51.230;6.240;2023-02-01T07:49:22;7.60;99.90
27647;DHT22;42229;51.230;6.240;2023-02-01T07:51:48;7.60;99.90
27647;DHT22;42229;51.230;6.240;2023-02-01T07:54:14;7.60;99.90
27647;DHT22;42229;51.230;6.240;2023-02-01T07:56:40;7.60;99.90
27647;DHT22;42229;51.230;6.240;2023-02-01T07:59:06;7.60;99.90
27647;DHT22;42229;51.230;6.240;2023-02-01T08:01:33;7.60;99.90
27647;DHT22;42229;51.230;6.240;2023-02-01T08:04:00;7.60;99.90
27647;DHT22;42229;51.230;6.240;2023-02-01T08:06:31;7.60;99.90
27647;DHT22;42229;51.230;6.240;2023-02-01T08:08:58;7.60;99.90
27647;DHT22;42229;51.230;6.240;2023-02-01T08:11:24;7.60;99.90
27647;DHT22;42229;51.230;6.240;2023-02-01T08:13:51;7.60;99.90
27647;DHT22;42229;51.230;6.240;2023-02-01T08:16:18;7.60;99.90
27647;DHT22;42229;51.230;6.240;2023-02-01T08:18:45;7.60;99.90
27647;DHT22;42229;51.230;6.240;2023-02-01T08:21:13;7.60;99.90
27647;DHT22;42229;51.230;6.240;2023-02-01T08:23:40;7.60;99.90
27647;DHT22;42229;51.230;6.240;2023-02-01T08:26:12;7.60;99.90
27647;DHT22;42229;51.230;6.240;2023-02-01T08:28:42;7.60;99.90
27647;DHT22;42229;51.230;6.240;2023-02-01T08:31:11;7.60;99.90
27647;DHT22;42229;51.230;6.240;2023-02-01T08:33:40;7.60;99.90
27647;DHT22;42229;51.230;6.240;2023-02-01T08:36:09;7.70;99.90
27647;DHT22;42229;51.230;6.240;2023-02-01T08:38:36;7.70;99.90
27647;DHT22;42229;51.230;6.240;2023-02-01T08:41:07;7.70;99.90
27647;DHT22;42229;51.230;6.240;2023-02-01T08:43:34;7.70;99.90
27647;DHT22;42229;51.230;6.240;2023-02-01T08:46:01;7.80;99.90
27647;DHT22;42229;51.230;6.240;2023-02-01T08:48:28;7.70;99.90
27647;DHT22;42229;51.230;6.240;2023-02-01T08:50:54;7.70;99.90
27647;DHT22;42229;51.230;6.240;2023-02-01T08:53:20;7.80;99.90
27647;DHT22;42229;51.230;6.240;2023-02-01T08:55:46;7.80;99.90
27647;DHT22;42229;51.230;6.240;2023-02-01T08:58:13;7.90;99.90
27647;DHT22;42229;51.230;6.240;2023-02-01T09:00:40;7.90;99.90
27647;DHT22;42229;51.230;6.240;2023-02-01T09:03:08;7.90;99.90
27647;DHT22;42229;51.230;6.240;2023-02-01T09:05:36;7.90;99.90
27647;DHT22;42229;51.230;6.240;2023-02-01T09:08:02;7.90;99.90
27647;DHT22;42229;51.230;6.240;2023-02-01T09:10:28;8.00;99.90
27647;DHT22;42229;51.230;6.240;2023-02-01T09:12:54;8.00;99.90
27647;DHT22;42229;51.230;6.240;2023-02-01T09:15:21;8.00;99.90
27647;DHT22;42229;51.230;6.240;2023-02-01T09:17:47;8.10;99.90
27647;DHT22;42229;51.230;6.240;2023-02-01T09:20:14;8.10;99.90
27647;DHT22;42229;51.230;6.240;2023-02-01T09:22:41;8.10;99.90
27647;DHT22;42229;51.230;6.240;2023-02-01T09:25:07;8.10;99.90
27647;DHT22;42229;51.230;6.240;2023-02-01T09:27:34;8.10;99.90
27647;DHT22;42229;51.230;6.240;2023-02-01T09:30:01;8.20;99.90
27647;DHT22;42229;51.230;6.240;2023-02-01T09:32:27;8.20;99.90
27647;DHT22;42229;51.230;6.240;2023-02-01T09:34:53;8.30;99.90
27647;DHT22;42229;51.230;6.240;2023-02-01T09:37:20;8.20;99.90
27647;DHT22;42229;51.230;6.240;2023-02-01T09:39:46;8.20;99.90
27647;DHT22;42229;51.230;6.240;2023-02-01T09:45:10;8.20;99.90
27647;DHT22;42229;51.230;6.240;2023-02-01T09:47:50;8.30;99.90
27647;DHT22;42229;51.230;6.240;2023-02-01T09:50:19;8.30;99.90
27647;DHT22;42229;51.230;6.240;2023-02-01T09:52:55;8.30;99.90
27647;DHT22;42229;51.230;6.240;2023-02-01T09:55:34;8.30;99.90
27647;DHT22;42229;51.230;6.240;2023-02-01T09:58:06;8.40;99.90
27647;DHT22;42229;51.230;6.240;2023-02-01T10:00:38;8.40;99.90
27647;DHT22;42229;51.230;6.240;2023-02-01T10:03:05;8.50;99.90
27647;DHT22;42229;51.230;6.240;2023-02-01T10:06:01;8.50;99.90
27647;DHT22;42229;51.230;6.240;2023-02-01T10:08:33;8.60;99.90
27647;DHT22;42229;51.230;6.240;2023-02-01T10:11:23;8.60;99.90
27647;DHT22;42229;51.230;6.240;2023-02-01T10:22:39;8.80;99.90
27647;DHT22;42229;51.230;6.240;2023-02-01T10:25:19;8.80;99.90
27647;DHT22;42229;51.230;6.240;2023-02-01T10:27:49;8.90;99.90
27647;DHT22;42229;51.230;6.240;2023-02-01T10:30:18;8.90;99.90
27647;DHT22;42229;51.230;6.240;2023-02-01T10:32:46;9.00;99.90
27647;DHT22;42229;51.230;6.240;2023-02-01T10:35:15;9.00;99.90
27647;DHT22;42229;51.230;6.240;2023-02-01T10:37:43;9.10;99.90
27647;DHT22;42229;51.230;6.240;2023-02-01T10:40:15;9.10;99.90
27647;DHT22;42229;51.230;6.240;2023-02-01T10:42:45;9.20;99.90
27647;DHT22;42229;51.230;6.240;2023-02-01T10:45:13;9.20;99.90
27647;DHT22;42229;51.230;6.240;2023-02-01T10:47:41;9.20;99.90
27647;DHT22;42229;51.230;6.240;2023-02-01T10:50:11;9.30;99.90
27647;DHT22;42229;51.230;6.240;2023-02-01T10:52:46;9.40;99.90
27647;DHT22;42229;51.230;6.240;2023-02-01T10:55:25;9.50;99.90
27647;DHT22;42229;51.230;6.240;2023-02-01T10:57:56;9.40;99.90
27647;DHT22;42229;51.230;6.240;2023-02-01T11:00:23;9.40;99.90
27647;DHT22;42229;51.230;6.240;2023-02-01T11:02:50;9.40;99.90
27647;DHT22;42229;51.230;6.240;2023-02-01T11:05:17;9.40;99.90
27647;DHT22;42229;51.230;6.240;2023-02-01T11:07:53;9.40;99.90
27647;DHT22;42229;51.230;6.240;2023-02-01T11:10:35;9.40;99.90
27647;DHT22;42229;51.230;6.240;2023-02-01T11:13:11;9.40;99.90
27647;DHT22;42229;51.230;6.240;2023-02-01T11:15:45;9.40;99.90
27647;DHT22;42229;51.230;6.240;2023-02-01T11:18:16;9.50;99.90
27647;DHT22;42229;51.230;6.240;2023-02-01T11:20:44;9.50;99.90
27647;DHT22;42229;51.230;6.240;2023-02-01T11:23:15;9.40;99.90
27647;DHT22;42229;51.230;6.240;2023-02-01T11:28:23;9.30;99.90
27647;DHT22;42229;51.230;6.240;2023-02-01T11:30:53;9.30;99.90
27647;DHT22;42229;51.230;6.240;2023-02-01T11:33:23;9.30;99.90
27647;DHT22;42229;51.230;6.240;2023-02-01T11:35:53;9.30;99.90
27647;DHT22;42229;51.230;6.240;2023-02-01T11:38:26;9.40;99.90
27647;DHT22;42229;51.230;6.240;2023-02-01T11:40:54;9.40;99.90
27647;DHT22;42229;51.230;6.240;2023-02-01T11:46:16;9.30;99.90
27647;DHT22;42229;51.230;6.240;2023-02-01T11:48:42;9.40;99.90
27647;DHT22;42229;51.230;6.240;2023-02-01T11:59:05;9.30;99.90
27647;DHT22;42229;51.230;6.240;2023-02-01T12:10:23;9.50;99.90
27647;DHT22;42229;51.230;6.240;2023-02-01T12:15:39;9.50;99.90
27647;DHT22;42229;51.230;6.240;2023-02-01T12:23:44;9.60;99.90
27647;DHT22;42229;51.230;6.240;2023-02-01T12:32:02;9.60;99.90
27647;DHT22;42229;51.230;6.240;2023-02-01T12:46:11;9.70;99.90
27647;DHT22;42229;51.230;6.240;2023-02-01T12:51:14;9.70;99.90
27647;DHT22;42229;51.230;6.240;2023-02-01T12:53:52;9.70;99.90
27647;DHT22;42229;51.230;6.240;2023-02-01T12:56:31;9.80;99.90
27647;DHT22;42229;51.230;6.240;2023-02-01T12:59:16;9.90;99.90
27647;DHT22;42229;51.230;6.240;2023-02-01T13:07:26;9.80;99.90
27647;DHT22;42229;51.230;6.240;2023-02-01T13:09:57;9.90;99.90
27647;DHT22;42229;51.230;6.240;2023-02-01T13:12:33;9.80;99.90
27647;DHT22;42229;51.230;6.240;2023-02-01T13:15:11;9.80;99.90
27647;DHT22;42229;51.230;6.240;2023-02-01T13:17:40;9.70;99.90
27647;DHT22;42229;51.230;6.240;2023-02-01T13:22:47;9.80;99.90
27647;DHT22;42229;51.230;6.240;2023-02-01T13:25:26;9.80;99.90
27647;DHT22;42229;51.230;6.240;2023-02-01T13:27:56;9.80;99.90
27647;DHT22;42229;51.230;6.240;2023-02-01T13:30:28;9.80;99.90
27647;DHT22;42229;51.230;6.240;2023-02-01T13:41:10;9.90;99.90
27647;DHT22;42229;51.230;6.240;2023-02-01T13:43:42;9.90;99.90
27647;DHT22;42229;51.230;6.240;2023-02-01T13:46:10;10.00;99.90
27647;DHT22;42229;51.230;6.240;2023-02-01T13:49:03;10.10;99.90
27647;DHT22;42229;51.230;6.240;2023-02-01T13:51:31;10.10;99.90
27647;DHT22;42229;51.230;6.240;2023-02-01T13:54:06;10.00;99.90
27647;DHT22;42229;51.230;6.240;2023-02-01T13:56:39;10.10;99.90
27647;DHT22;42229;51.230;6.240;2023-02-01T13:59:35;10.20;99.90
27647;DHT22;42229;51.230;6.240;2023-02-01T14:05:02;10.20;99.90
27647;DHT22;42229;51.230;6.240;2023-02-01T14:07:28;10.20;99.90
27647;DHT22;42229;51.230;6.240;2023-02-01T14:09:55;10.10;99.90
27647;DHT22;42229;51.230;6.240;2023-02-01T14:15:44;10.20;99.90
27647;DHT22;42229;51.230;6.240;2023-02-01T14:18:06;10.30;99.90
27647;DHT22;42229;51.230;6.240;2023-02-01T14:21:21;10.20;99.90
27647;DHT22;42229;51.230;6.240;2023-02-01T14:29:01;10.20;99.90
27647;DHT22;42229;51.230;6.240;2023-02-01T14:34:12;10.30;99.90
27647;DHT22;42229;51.230;6.240;2023-02-01T14:36:43;10.30;99.90
27647;DHT22;42229;51.230;6.240;2023-02-01T14:39:21;10.30;99.90
27647;DHT22;42229;51.230;6.240;2023-02-01T14:41:52;10.40;99.90
27647;DHT22;42229;51.230;6.240;2023-02-01T14:44:24;10.30;99.90
27647;DHT22;42229;51.230;6.240;2023-02-01T14:49:33;10.30;99.90
27647;DHT22;42229;51.230;6.240;2023-02-01T14:52:02;10.20;99.90
27647;DHT22;42229;51.230;6.240;2023-02-01T14:54:32;10.30;99.90
27647;DHT22;42229;51.230;6.240;2023-02-01T14:56:58;10.20;99.90
27647;DHT22;42229;51.230;6.240;2023-02-01T14:59:25;10.30;99.90
27647;DHT22;42229;51.230;6.240;2023-02-01T15:01:59;10.20;99.90
27647;DHT22;42229;51.230;6.240;2023-02-01T15:04:26;10.10;99.90
27647;DHT22;42229;51.230;6.240;2023-02-01T15:14:42;10.20;99.90
27647;DHT22;42229;51.230;6.240;2023-02-01T15:17:22;10.20;99.90
27647;DHT22;42229;51.230;6.240;2023-02-01T15:19:55;10.10;99.90
27647;DHT22;42229;51.230;6.240;2023-02-01T15:22:23;10.00;99.90
27647;DHT22;42229;51.230;6.240;2023-02-01T15:24:57;10.10;99.90
27647;DHT22;42229;51.230;6.240;2023-02-01T15:27:25;10.10;99.90
27647;DHT22;42229;51.230;6.240;2023-02-01T15:29:52;10.10;99.90
27647;DHT22;42229;51.230;6.240;2023-02-01T15:32:28;10.10;99.90
27647;DHT22;42229;51.230;6.240;2023-02-01T15:35:05;10.10;99.90
27647;DHT22;42229;51.230;6.240;2023-02-01T15:37:52;10.10;99.90
27647;DHT22;42229;51.230;6.240;2023-02-01T15:40:19;10.00;99.90
27647;DHT22;42229;51.230;6.240;2023-02-01T15:42:51;10.00;99.90
27647;DHT22;42229;51.230;6.240;2023-02-01T15:45:20;10.10;99.90
27647;DHT22;42229;51.230;6.240;2023-02-01T15:47:48;10.00;99.90
27647;DHT22;42229;51.230;6.240;2023-02-01T15:50:15;10.00;99.90
27647;DHT22;42229;51.230;6.240;2023-02-01T15:52:42;9.90;99.90
27647;DHT22;42229;51.230;6.240;2023-02-01T15:55:18;9.90;99.90
27647;DHT22;42229;51.230;6.240;2023-02-01T15:57:48;10.00;99.90
27647;DHT22;42229;51.230;6.240;2023-02-01T16:02:55;10.10;99.90
27647;DHT22;42229;51.230;6.240;2023-02-01T16:05:35;10.10;99.90
27647;DHT22;42229;51.230;6.240;2023-02-01T16:08:11;10.00;99.90
27647;DHT22;42229;51.230;6.240;2023-02-01T16:10:41;10.00;99.90
27647;DHT22;42229;51.230;6.240;2023-02-01T16:13:09;10.00;99.90
27647;DHT22;42229;51.230;6.240;2023-02-01T16:15:35;10.00;99.90
27647;DHT22;42229;51.230;6.240;2023-02-01T16:18:01;9.90;99.90
27647;DHT22;42229;51.230;6.240;2023-02-01T16:20:28;9.90;99.90
27647;DHT22;42229;51.230;6.240;2023-02-01T16:22:55;9.80;99.90
27647;DHT22;42229;51.230;6.240;2023-02-01T16:25:22;9.80;99.90
27647;DHT22;42229;51.230;6.240;2023-02-01T16:27:48;9.80;99.90
27647;DHT22;42229;51.230;6.240;2023-02-01T16:30:14;9.80;99.90
27647;DHT22;42229;51.230;6.240;2023-02-01T16:32:41;9.70;99.90
27647;DHT22;42229;51.230;6.240;2023-02-01T16:38:11;9.70;99.90
27647;DHT22;42229;51.230;6.240;2023-02-01T16:40:39;9.60;99.90
27647;DHT22;42229;51.230;6.240;2023-02-01T16:45:43;9.70;99.90
27647;DHT22;42229;51.230;6.240;2023-02-01T16:48:23;9.70;99.90
27647;DHT22;42229;51.230;6.240;2023-02-01T16:50:52;9.70;99.90
27647;DHT22;42229;51.230;6.240;2023-02-01T16:53:20;9.80;99.90
27647;DHT22;42229;51.230;6.240;2023-02-01T16:55:47;9.80;99.90
27647;DHT22;42229;51.230;6.240;2023-02-01T16:58:16;9.80;99.90
27647;DHT22;42229;51.230;6.240;2023-02-01T17:00:43;9.90;99.90
27647;DHT22;42229;51.230;6.240;2023-02-01T17:03:12;9.90;99.90
27647;DHT22;42229;51.230;6.240;2023-02-01T17:05:46;9.90;99.90
27647;DHT22;42229;51.230;6.240;2023-02-01T17:08:15;10.00;99.90
27647;DHT22;42229;51.230;6.240;2023-02-01T17:10:45;9.90;99.90
27647;DHT22;42229;51.230;6.240;2023-02-01T17:13:15;10.00;99.90
27647;DHT22;42229;51.230;6.240;2023-02-01T17:15:51;10.00;99.90
27647;DHT22;42229;51.230;6.240;2023-02-01T17:18:21;10.00;99.90
27647;DHT22;42229;51.230;6.240;2023-02-01T17:20:47;10.00;99.90
27647;DHT22;42229;51.230;6.240;2023-02-01T17:23:14;9.90;99.90
27647;DHT22;42229;51.230;6.240;2023-02-01T17:25:44;10.00;99.90
27647;DHT22;42229;51.230;6.240;2023-02-01T17:28:10;10.00;99.90
27647;DHT22;42229;51.230;6.240;2023-02-01T17:30:37;10.00;99.90
27647;DHT22;42229;51.230;6.240;2023-02-01T17:33:04;10.10;99.90
27647;DHT22;42229;51.230;6.240;2023-02-01T17:35:48;10.10;99.90
27647;DHT22;42229;51.230;6.240;2023-02-01T17:38:14;10.10;99.90
27647;DHT22;42229;51.230;6.240;2023-02-01T17:40:40;10.10;99.90
27647;DHT22;42229;51.230;6.240;2023-02-01T17:43:09;10.00;99.90
27647;DHT22;42229;51.230;6.240;2023-02-01T17:45:39;10.00;99.90
27647;DHT22;42229;51.230;6.240;2023-02-01T17:48:12;10.00;99.90
27647;DHT22;42229;51.230;6.240;2023-02-01T17:50:38;10.00;99.90
27647;DHT22;42229;51.230;6.240;2023-02-01T17:53:04;10.00;99.90
27647;DHT22;42229;51.230;6.240;2023-02-01T17:55:35;10.00;99.90
27647;DHT22;42229;51.230;6.240;2023-02-01T17:58:02;10.00;99.90
27647;DHT22;42229;51.230;6.240;2023-02-01T18:00:29;9.90;99.90
27647;DHT22;42229;51.230;6.240;2023-02-01T18:02:55;9.90;99.90
27647;DHT22;42229;51.230;6.240;2023-02-01T18:05:41;9.80;99.90
27647;DHT22;42229;51.230;6.240;2023-02-01T18:08:09;9.90;99.90
27647;DHT22;42229;51.230;6.240;2023-02-01T18:10:35;9.80;99.90
27647;DHT22;42229;51.230;6.240;2023-02-01T18:13:02;9.80;99.90
27647;DHT22;42229;51.230;6.240;2023-02-01T18:15:28;9.80;99.90
27647;DHT22;42229;51.230;6.240;2023-02-01T18:17:55;9.80;99.90
27647;DHT22;42229;51.230;6.240;2023-02-01T18:20:22;9.80;99.90
27647;DHT22;42229;51.230;6.240;2023-02-01T18:22:50;9.80;99.90